Donora, PA (15033)

7:59 AM EST on December 10, 2016 (GMT -0500)
| | Change Station

Elev -9999 ft 0.00 °N, 0.00 °E | Updated 11 seconds ago

Overcast
Overcast
72 °F
Feels Like 72 °F
N
4
Wind Variable Wind from SSW
Gusts mph

Today
High -- | Low -- °F
--% Chance of Precip.
Yesterday
High -- | Low -- °F
Precip. -- in
Pressure 30.51 in
Visibility 7.0 miles
Clouds Few 2000 ft
Overcast 4800 ft
Dew Point 61 °F
Humidity 68%
Rainfall --
Snow Depth Not available.
7:31 AM 4:53 PM
Waxing Gibbous, 83% visible
METAR KAGC 101253Z 25012KT 7SM FEW020 OVC048 M05/M09 A3044 RMK AO2 SLP330 T10501089
Pressure 30.51 in
Visibility 7.0 miles
Clouds Few 2000 ft
Overcast 4800 ft
Dew Point 61 °F
Humidity 68%
Rainfall --
Snow Depth Not available.
7:31 AM 4:53 PM
Waxing Gibbous, 83% visible
METAR KAGC 101253Z 25012KT 7SM FEW020 OVC048 M05/M09 A3044 RMK AO2 SLP330 T10501089

10-Day Weather Forecast

Almanac

Astronomy

Dec. 10, 2016 Rise Set
Actual Time
Civil Twilight
Nautical Twilight
Astronomical Twilight
Moon
Length of Visible Light
Length of Day
Tomorrow will be .
, % of the Moon is Illuminated

Today's Extremes

State Highs State Lows

Community

WunderPhotos

Upload Photos

1,956,540 photos uploaded!

WunderBlog® & News

Nearby

Air Quality

  Air Quality AQ Index Pollutant
Not available.

Snow Depth

Station Depth Elevation

Earthquake Activity

City Distance Mag. Time & Date
Minimum magnitude displayed is 2.5.

Coastal Water Temperatures

Place Temperature

Stations

Nearby Weather Stations

Station Location Temp. Windchill Dew Point Humidity Wind Precip. Elev Updated Type
                   

Watches & Warnings

There are currently no watches in effect.